Estación Meteorológica Peña el Pijo (Robertgarden) [ 01/30/23 14:50:00 CET ]

Fecha Hora Presion(HPa) Temp (°C) Humedad % Rocio (°C) Viento ( m/s) Direccion Lluvia 1Hora(mm) Lluvia 24H(mm) LLuvia Total(mm)
2012-Sep-07 01:01:14 1016.300 16.2 67 10.1         178.19
2012-Sep-07 02:01:13 1016.500 14.9 72 9.9         178.19
2012-Sep-07 03:03:18 1016.600 14.1 72 9.1         178.19
2012-Sep-07 04:01:14 1016.500 13.0 75 8.7         178.19
2012-Sep-07 05:01:16 1016.300 11.9 78 8.2         178.19
2012-Sep-07 06:01:13 1016.200 11.1 80 7.8         178.19
2012-Sep-07 07:01:16 1016.200 10.5 81 7.4         178.19
2012-Sep-07 08:01:14 1016.400 9.9 82 6.9         178.19
2012-Sep-07 09:01:14 1016.500 12.6 81 9.4         178.19
2012-Sep-07 10:01:12 1016.600 19.5 60 11.6         178.19
2012-Sep-07 11:01:16 1016.800 24.3 40 9.9         178.19
2012-Sep-07 12:01:13 1016.900 23.4 35 7.0         178.19
2012-Sep-07 13:01:13 1016.200 27.3 29 7.7         178.19
2012-Sep-07 14:01:13 1016.000 31.2 25 8.6 1.3 ENE     178.19
2012-Sep-07 15:01:17 1016.100 29.6 31 10.7         178.19
2012-Sep-07 16:01:16 1015.500 30.9 28 10.1         178.19
2012-Sep-07 17:01:12 1015.200 30.1 29 10.1 1.9 ENE     178.19
2012-Sep-07 18:01:14 1015.600 24.9 40 10.4         178.19
2012-Sep-07 19:01:17 1015.100 23.5 47 11.5         178.19
2012-Sep-07 20:01:14 1015.300 23.1 46 10.8         178.19
2012-Sep-07 21:01:19 1016.100 21.3 51 10.8         178.19
2012-Sep-07 22:01:18 1016.900 20.3 54 10.7         178.19
2012-Sep-07 23:01:17 1017.200 18.1 60 10.2         178.19

Temperatura Máxima:31°    Temperatura Mínima:
Presión Máxima:1017.200 Hpa    Presión Mínima:1015.100 Hpa


Volver